createdAt,value
2019-01-25T00:01:07.912Z,-2.20
2019-01-25T00:03:35.977Z,-2.20
2019-01-25T00:06:03.905Z,-2.20
2019-01-25T00:08:30.387Z,-2.20
2019-01-25T00:10:56.919Z,-2.10
2019-01-25T00:13:23.696Z,-2.10
2019-01-25T00:15:50.178Z,-2.10
2019-01-25T00:18:16.719Z,-2.20
2019-01-25T00:20:43.323Z,-1.00
2019-01-25T00:23:09.905Z,-2.10
2019-01-25T00:25:36.326Z,-2.10
2019-01-25T00:28:03.205Z,-2.20
2019-01-25T00:30:29.610Z,-2.10
2019-01-25T00:32:56.139Z,-2.10
2019-01-25T00:35:22.723Z,-2.10
2019-01-25T00:37:49.216Z,-2.10
2019-01-25T00:40:18.355Z,-2.10
2019-01-25T00:42:45.038Z,-2.10
2019-01-25T00:45:12.274Z,-2.10
2019-01-25T00:47:38.715Z,-2.10
2019-01-25T00:50:09.025Z,-2.20
2019-01-25T00:52:35.697Z,-2.10
2019-01-25T00:55:03.821Z,-2.10
2019-01-25T00:57:30.416Z,-2.10
2019-01-25T00:59:56.882Z,-1.90
2019-01-25T01:02:23.296Z,-1.90
2019-01-25T01:04:49.700Z,-2.00
2019-01-25T01:07:17.488Z,-2.10
2019-01-25T01:09:44.174Z,-2.10
2019-01-25T01:12:10.752Z,-2.10
2019-01-25T01:14:37.280Z,-2.10
2019-01-25T01:17:03.852Z,-2.10
2019-01-25T01:19:30.262Z,-2.20
2019-01-25T01:21:56.721Z,-2.20
2019-01-25T01:24:23.109Z,-2.10
2019-01-25T01:26:51.518Z,-2.10
2019-01-25T01:29:18.024Z,-2.10
2019-01-25T01:31:45.024Z,-2.20
2019-01-25T01:34:11.461Z,-2.10
2019-01-25T01:36:37.864Z,-2.00
2019-01-25T01:39:05.251Z,-2.00
2019-01-25T01:41:31.658Z,-2.00
2019-01-25T01:43:58.141Z,-2.00
2019-01-25T01:46:24.545Z,-2.00
2019-01-25T01:48:51.037Z,-2.00
2019-01-25T01:51:17.561Z,-2.00
2019-01-25T01:53:43.923Z,-2.00
2019-01-25T01:56:10.354Z,-2.00
2019-01-25T01:58:36.847Z,-2.00
2019-01-25T02:01:03.539Z,-2.00
2019-01-25T02:03:29.907Z,-2.00
2019-01-25T02:05:56.364Z,-2.00
2019-01-25T02:08:22.741Z,-2.00
2019-01-25T02:10:49.260Z,-2.00
2019-01-25T02:13:15.852Z,-1.80
2019-01-25T02:15:42.387Z,-2.00
2019-01-25T02:18:08.878Z,-1.70
2019-01-25T02:20:35.519Z,-1.80
2019-01-25T02:23:02.134Z,-1.90
2019-01-25T02:25:28.956Z,-1.70
2019-01-25T02:27:55.521Z,-1.90
2019-01-25T02:30:23.745Z,-2.00
2019-01-25T02:32:50.325Z,-2.00
2019-01-25T02:35:16.840Z,-2.00
2019-01-25T02:37:43.322Z,-2.00
2019-01-25T02:40:18.485Z,-2.00
2019-01-25T02:42:45.040Z,-2.90
2019-01-25T02:45:12.435Z,-1.90
2019-01-25T02:47:39.169Z,-1.90
2019-01-25T02:50:12.343Z,-1.90
2019-01-25T02:52:40.752Z,-1.90
2019-01-25T02:55:08.981Z,-1.90
2019-01-25T02:57:35.463Z,-1.90
2019-01-25T03:00:05.802Z,-1.60
2019-01-25T03:02:32.362Z,-2.00
2019-01-25T03:04:58.783Z,-1.60
2019-01-25T03:07:25.341Z,-2.00
2019-01-25T03:09:51.823Z,-2.00
2019-01-25T03:12:18.362Z,-1.20
2019-01-25T03:14:44.720Z,-2.00
2019-01-25T03:17:11.250Z,-2.00
2019-01-25T03:19:39.554Z,-1.80
2019-01-25T03:22:06.219Z,-2.00
2019-01-25T03:24:32.767Z,-2.00
2019-01-25T03:26:59.279Z,-2.00
2019-01-25T03:29:25.698Z,-2.00
2019-01-25T03:31:52.213Z,-2.00
2019-01-25T03:34:18.678Z,-1.90
2019-01-25T03:36:45.183Z,-1.80
2019-01-25T03:39:11.761Z,-1.80
2019-01-25T03:41:38.381Z,-1.80
2019-01-25T03:44:04.966Z,-1.80
2019-01-25T03:46:31.477Z,-1.80
2019-01-25T03:48:57.948Z,-1.90
2019-01-25T03:51:24.411Z,-1.30
2019-01-25T03:53:51.058Z,-1.80
2019-01-25T03:56:18.720Z,-1.80
2019-01-25T03:58:45.196Z,-1.70
2019-01-25T04:01:11.581Z,-1.70
2019-01-25T04:03:38.123Z,-1.80
2019-01-25T04:06:04.687Z,-0.80
2019-01-25T04:08:31.977Z,-1.80
2019-01-25T04:11:03.366Z,-1.70
2019-01-25T04:13:26.673Z,-1.70
2019-01-25T04:15:53.150Z,-2.30
2019-01-25T04:18:20.609Z,-1.80
2019-01-25T04:20:46.999Z,-1.70
2019-01-25T04:23:13.403Z,-1.70
2019-01-25T04:25:39.787Z,-1.60
2019-01-25T04:28:06.393Z,-1.70
2019-01-25T04:30:33.201Z,-1.70
2019-01-25T04:32:59.846Z,-1.70
2019-01-25T04:35:26.429Z,-1.70
2019-01-25T04:37:53.031Z,-1.70
2019-01-25T04:40:20.801Z,-2.50
2019-01-25T04:42:47.400Z,-1.80
2019-01-25T04:45:16.765Z,-0.60
2019-01-25T04:47:43.325Z,-1.70
2019-01-25T04:50:13.062Z,-1.70
2019-01-25T04:52:40.190Z,-1.80
2019-01-25T04:55:10.352Z,-1.70
2019-01-25T04:57:36.856Z,-1.80
2019-01-25T05:00:07.152Z,-1.70
2019-01-25T05:02:33.763Z,-1.60
2019-01-25T05:05:00.209Z,-1.30
2019-01-25T05:07:26.703Z,-1.50
2019-01-25T05:09:53.078Z,-1.60
2019-01-25T05:12:19.594Z,-1.70
2019-01-25T05:14:46.088Z,-1.70
2019-01-25T05:17:12.536Z,-1.70
2019-01-25T05:19:39.293Z,-1.80
2019-01-25T05:22:06.052Z,-1.70
2019-01-25T05:24:32.487Z,-1.70
2019-01-25T05:26:58.959Z,-1.70
2019-01-25T05:29:44.294Z,-1.60
2019-01-25T05:32:11.039Z,-1.60
2019-01-25T05:34:37.588Z,-1.60
2019-01-25T05:37:08.676Z,-1.60
2019-01-25T05:39:35.226Z,-1.40
2019-01-25T05:42:01.628Z,-1.50
2019-01-25T05:44:28.166Z,-1.10
2019-01-25T05:46:54.559Z,-1.50
2019-01-25T05:49:22.778Z,-1.50
2019-01-25T05:51:49.455Z,-1.60
2019-01-25T05:54:15.978Z,-1.60
2019-01-25T05:56:42.359Z,-1.60
2019-01-25T05:59:08.971Z,-1.60
2019-01-25T06:01:41.085Z,-1.60
2019-01-25T06:04:08.191Z,-1.60
2019-01-25T06:06:34.701Z,-1.60
2019-01-25T06:09:01.228Z,-1.60
2019-01-25T06:11:35.219Z,-1.70
2019-01-25T06:13:57.107Z,-1.60
2019-01-25T06:16:23.543Z,-1.60
2019-01-25T06:18:50.033Z,-1.60
2019-01-25T06:21:16.635Z,-1.70
2019-01-25T06:23:43.149Z,-1.80
2019-01-25T06:26:11.896Z,-1.80
2019-01-25T06:28:38.458Z,-1.80
2019-01-25T06:31:05.136Z,-1.70
2019-01-25T06:33:31.570Z,-1.70
2019-01-25T06:35:57.948Z,-1.70
2019-01-25T06:38:24.467Z,-1.60
2019-01-25T06:40:50.868Z,-1.70
2019-01-25T06:43:17.398Z,-1.70
2019-01-25T06:45:43.992Z,-1.70
2019-01-25T06:48:10.468Z,-1.70
2019-01-25T06:50:36.895Z,-1.70
2019-01-25T06:53:03.514Z,-1.60
2019-01-25T06:55:30.006Z,-1.70
2019-01-25T06:58:01.118Z,-1.70
2019-01-25T07:00:35.453Z,-1.70
2019-01-25T07:03:01.906Z,-1.60
2019-01-25T07:05:28.556Z,-1.70
2019-01-25T07:07:57.082Z,-1.60
2019-01-25T07:10:23.722Z,-1.60
2019-01-25T07:12:50.094Z,-1.60
2019-01-25T07:15:18.724Z,-1.60
2019-01-25T07:17:45.797Z,-1.60
2019-01-25T07:20:16.269Z,-1.60
2019-01-25T07:22:42.630Z,-1.60
2019-01-25T07:25:11.640Z,-1.60
2019-01-25T07:27:38.271Z,-1.70
2019-01-25T07:30:08.645Z,-1.70
2019-01-25T07:32:43.861Z,-1.70
2019-01-25T07:35:11.147Z,-1.60
2019-01-25T07:37:37.721Z,-1.60
2019-01-25T07:40:06.737Z,-1.50
2019-01-25T07:42:33.335Z,-0.20
2019-01-25T07:44:59.809Z,-1.50
2019-01-25T07:47:26.333Z,-1.60
2019-01-25T07:49:52.751Z,-1.50
2019-01-25T07:52:19.162Z,-1.50
2019-01-25T07:54:45.599Z,-1.40
2019-01-25T07:57:11.985Z,-1.40
2019-01-25T07:59:38.526Z,-1.40
2019-01-25T08:02:05.226Z,-1.40
2019-01-25T08:04:31.725Z,-1.20
2019-01-25T08:06:58.977Z,-1.30
2019-01-25T08:09:25.725Z,-1.30
2019-01-25T08:11:52.492Z,-1.50
2019-01-25T08:14:19.162Z,-1.40
2019-01-25T08:16:45.524Z,-1.40
2019-01-25T08:19:12.171Z,-1.30
2019-01-25T08:21:38.621Z,-1.30
2019-01-25T08:24:05.322Z,-1.20
2019-01-25T08:26:31.944Z,-1.20
2019-01-25T08:28:58.576Z,-1.20
2019-01-25T08:31:25.506Z,-1.20
2019-01-25T08:33:51.920Z,-1.20
2019-01-25T08:36:18.545Z,-1.20
2019-01-25T08:38:45.130Z,-1.20
2019-01-25T08:41:11.762Z,-0.90
2019-01-25T08:43:38.117Z,-1.10
2019-01-25T08:51:10.338Z,-1.10
2019-01-25T08:53:36.836Z,-1.00
2019-01-25T08:56:06.386Z,-1.10
2019-01-25T08:58:32.918Z,-1.10
2019-01-25T09:00:59.473Z,-1.00
2019-01-25T09:03:25.868Z,-1.00
2019-01-25T09:05:52.386Z,-1.00
2019-01-25T09:08:18.839Z,-1.00
2019-01-25T09:10:45.341Z,-0.90
2019-01-25T09:13:11.830Z,-0.90
2019-01-25T09:15:38.394Z,-0.80
2019-01-25T09:18:04.965Z,-0.80
2019-01-25T09:20:31.493Z,-0.70
2019-01-25T09:22:57.977Z,-0.60
2019-01-25T09:25:24.463Z,-0.50
2019-01-25T09:27:50.980Z,-0.50
2019-01-25T09:30:25.170Z,-0.50
2019-01-25T09:32:51.902Z,-0.50
2019-01-25T09:35:18.478Z,-0.40
2019-01-25T09:37:45.116Z,-0.20
2019-01-25T09:40:21.512Z,-0.30
2019-01-25T09:42:54.071Z,-0.40
2019-01-25T09:45:20.949Z,-0.30
2019-01-25T09:47:47.364Z,-0.40
2019-01-25T09:50:21.590Z,-0.30
2019-01-25T09:52:48.277Z,-0.30
2019-01-25T09:55:19.992Z,-0.30
2019-01-25T09:57:46.593Z,0.00
2019-01-25T10:00:22.522Z,-0.20
2019-01-25T10:02:49.113Z,-0.20
2019-01-25T10:05:15.782Z,-0.10
2019-01-25T10:07:42.557Z,-0.20
2019-01-25T10:10:09.154Z,-0.10
2019-01-25T10:12:43.078Z,-0.10
2019-01-25T10:15:13.692Z,0.00
2019-01-25T10:17:40.241Z,0.10
2019-01-25T10:20:09.251Z,0.10
2019-01-25T10:22:35.765Z,0.00
2019-01-25T10:25:04.666Z,0.10
2019-01-25T10:27:31.060Z,0.30
2019-01-25T10:29:57.676Z,0.20
2019-01-25T10:32:24.276Z,0.10
2019-01-25T10:34:50.670Z,0.30
2019-01-25T10:37:17.111Z,0.30
2019-01-25T10:39:43.641Z,0.30
2019-01-25T10:42:10.265Z,0.40
2019-01-25T10:44:36.646Z,0.40
2019-01-25T10:47:03.866Z,0.30
2019-01-25T10:49:30.463Z,0.40
2019-01-25T10:51:56.954Z,0.60
2019-01-25T10:54:23.344Z,0.60
2019-01-25T10:56:50.010Z,0.70
2019-01-25T10:59:16.534Z,0.80
2019-01-25T11:01:43.046Z,0.80
2019-01-25T11:07:05.881Z,0.90
2019-01-25T11:09:32.376Z,0.90
2019-01-25T11:11:58.930Z,0.90
2019-01-25T11:14:25.309Z,1.00
2019-01-25T11:16:51.744Z,2.80
2019-01-25T11:19:18.241Z,-1.00
2019-01-25T11:21:44.883Z,0.90
2019-01-25T11:24:11.420Z,0.90
2019-01-25T11:26:38.145Z,0.90
2019-01-25T11:29:04.856Z,1.00
2019-01-25T11:31:31.258Z,1.10
2019-01-25T11:33:57.674Z,1.20
2019-01-25T11:36:24.255Z,1.90
2019-01-25T11:38:50.863Z,1.20
2019-01-25T11:41:18.131Z,1.20
2019-01-25T11:43:44.546Z,1.20
2019-01-25T11:46:11.324Z,1.10
2019-01-25T11:48:37.759Z,1.20
2019-01-25T11:51:04.147Z,1.10
2019-01-25T11:53:30.545Z,1.10
2019-01-25T11:55:57.050Z,1.10
2019-01-25T11:58:23.618Z,1.20
2019-01-25T12:00:50.149Z,1.10
2019-01-25T12:03:16.585Z,1.20
2019-01-25T12:05:43.043Z,1.30
2019-01-25T12:08:09.889Z,1.40
2019-01-25T12:10:36.302Z,1.50
2019-01-25T12:13:03.054Z,1.60
2019-01-25T12:15:29.572Z,1.60
2019-01-25T12:17:55.978Z,1.60
2019-01-25T12:20:27.478Z,1.60
2019-01-25T12:22:54.092Z,1.60
2019-01-25T12:25:20.687Z,1.70
2019-01-25T12:27:47.229Z,1.60
2019-01-25T12:30:17.447Z,1.60
2019-01-25T12:32:43.859Z,1.70
2019-01-25T12:35:11.508Z,1.80
2019-01-25T12:37:37.965Z,1.90
2019-01-25T12:40:08.159Z,1.90
2019-01-25T12:42:34.769Z,1.90
2019-01-25T12:45:01.304Z,1.90
2019-01-25T12:47:27.742Z,1.90
2019-01-25T12:49:54.283Z,1.90
2019-01-25T12:52:20.878Z,2.10
2019-01-25T12:54:47.310Z,2.10
2019-01-25T12:57:13.784Z,2.10
2019-01-25T12:59:40.233Z,2.10
2019-01-25T13:02:06.837Z,2.10
2019-01-25T13:04:33.248Z,2.20
2019-01-25T13:06:59.858Z,2.20
2019-01-25T13:09:26.484Z,2.20
2019-01-25T13:11:53.103Z,2.30
2019-01-25T13:14:19.594Z,2.30
2019-01-25T13:16:46.231Z,2.30
2019-01-25T13:19:12.607Z,2.30
2019-01-25T13:21:39.171Z,2.40
2019-01-25T13:24:05.825Z,2.20
2019-01-25T13:26:32.421Z,2.30
2019-01-25T13:28:58.860Z,2.20
2019-01-25T13:31:25.266Z,2.20
2019-01-25T13:33:52.062Z,2.30
2019-01-25T13:36:18.563Z,2.20
2019-01-25T13:38:47.234Z,2.10
2019-01-25T13:41:13.874Z,2.10
2019-01-25T13:43:44.075Z,2.20
2019-01-25T13:46:10.898Z,2.20
2019-01-25T13:48:37.500Z,2.20
2019-01-25T13:51:04.246Z,2.20
2019-01-25T13:53:31.742Z,2.10
2019-01-25T13:55:58.264Z,2.10
2019-01-25T13:58:24.746Z,2.00
2019-01-25T14:00:54.264Z,2.10
2019-01-25T14:03:21.092Z,2.20
2019-01-25T14:05:47.678Z,2.20
2019-01-25T14:08:14.148Z,2.10
2019-01-25T14:10:40.783Z,2.20
2019-01-25T14:13:07.435Z,2.20
2019-01-25T14:15:34.088Z,2.30
2019-01-25T14:18:00.709Z,2.40
2019-01-25T14:20:31.547Z,2.50
2019-01-25T14:22:58.101Z,2.50
2019-01-25T14:25:24.723Z,2.60
2019-01-25T14:27:51.548Z,2.50
2019-01-25T14:30:24.286Z,2.50
2019-01-25T14:32:51.622Z,2.50
2019-01-25T14:35:18.652Z,2.50
2019-01-25T14:37:45.307Z,2.40
2019-01-25T14:40:12.373Z,2.40
2019-01-25T14:42:38.865Z,2.40
2019-01-25T14:45:09.118Z,2.30
2019-01-25T14:47:35.507Z,2.30
2019-01-25T14:50:04.618Z,2.20
2019-01-25T14:52:31.330Z,2.20
2019-01-25T14:54:57.772Z,2.20
2019-01-25T14:57:27.350Z,2.30
2019-01-25T14:59:54.188Z,2.30
2019-01-25T15:02:21.021Z,2.20
2019-01-25T15:04:49.743Z,2.20
2019-01-25T15:07:19.170Z,2.20
2019-01-25T15:09:48.876Z,2.20
2019-01-25T15:12:15.500Z,2.20
2019-01-25T15:14:42.022Z,2.20
2019-01-25T15:17:08.613Z,2.10
2019-01-25T15:19:35.351Z,2.20
2019-01-25T15:22:01.816Z,2.20
2019-01-25T15:24:28.916Z,2.20
2019-01-25T15:26:55.516Z,2.20
2019-01-25T15:29:25.451Z,2.20
2019-01-25T15:31:51.982Z,2.30
2019-01-25T15:34:18.521Z,2.30
2019-01-25T15:36:46.177Z,2.10
2019-01-25T15:39:13.308Z,2.20
2019-01-25T15:41:39.818Z,2.10
2019-01-25T15:44:10.112Z,3.40
2019-01-25T15:46:34.818Z,1.90
2019-01-25T15:49:01.270Z,1.80
2019-01-25T15:51:27.876Z,1.80
2019-01-25T15:53:54.313Z,1.60
2019-01-25T15:56:21.023Z,1.50
2019-01-25T15:58:47.591Z,1.50
2019-01-25T16:01:14.228Z,1.50
2019-01-25T16:03:40.716Z,1.50
2019-01-25T16:06:07.154Z,1.40
2019-01-25T16:08:33.601Z,1.50
2019-01-25T16:11:00.114Z,1.40
2019-01-25T16:13:26.689Z,1.40
2019-01-25T16:15:53.225Z,1.40
2019-01-25T16:18:19.605Z,1.40
2019-01-25T16:20:46.154Z,1.30
2019-01-25T16:23:12.610Z,1.30
2019-01-25T16:25:40.055Z,1.40
2019-01-25T16:28:06.637Z,1.30
2019-01-25T16:30:34.680Z,1.50
2019-01-25T16:33:01.141Z,1.60
2019-01-25T16:35:27.772Z,1.70
2019-01-25T16:37:54.763Z,1.30
2019-01-25T16:40:23.924Z,1.30
2019-01-25T16:42:50.494Z,1.30
2019-01-25T16:45:23.050Z,1.30
2019-01-25T16:47:49.454Z,1.30
2019-01-25T16:50:23.418Z,1.20
2019-01-25T16:52:44.433Z,1.20
2019-01-25T16:55:13.090Z,1.20
2019-01-25T16:57:39.565Z,1.30
2019-01-25T17:00:30.709Z,1.20
2019-01-25T17:02:57.280Z,1.30
2019-01-25T17:05:24.174Z,1.30
2019-01-25T17:07:50.750Z,1.30
2019-01-25T17:10:25.920Z,1.30
2019-01-25T17:12:54.910Z,1.30
2019-01-25T17:15:21.918Z,1.70
2019-01-25T17:17:49.581Z,1.30
2019-01-25T17:20:21.361Z,1.40
2019-01-25T17:22:47.108Z,1.30
2019-01-25T17:25:14.146Z,1.40
2019-01-25T17:27:41.016Z,1.40
2019-01-25T17:30:12.110Z,1.40
2019-01-25T17:32:38.590Z,1.40
2019-01-25T17:35:14.067Z,1.40
2019-01-25T17:37:42.785Z,1.40
2019-01-25T17:40:15.670Z,1.40
2019-01-25T17:42:42.556Z,1.40
2019-01-25T17:45:11.570Z,1.40
2019-01-25T17:47:38.232Z,1.40
2019-01-25T17:50:08.118Z,1.40
2019-01-25T17:52:34.643Z,1.50
2019-01-25T17:55:07.427Z,1.50
2019-01-25T17:57:34.290Z,1.50
2019-01-25T18:00:00.800Z,1.50
2019-01-25T18:02:27.338Z,1.50
2019-01-25T18:04:53.857Z,1.50
2019-01-25T18:07:20.269Z,1.50
2019-01-25T18:09:46.900Z,1.50
2019-01-25T18:12:13.335Z,1.50
2019-01-25T18:14:40.068Z,1.50
2019-01-25T18:17:07.037Z,1.50
2019-01-25T18:19:33.772Z,1.50
2019-01-25T18:22:00.467Z,1.70
2019-01-25T18:24:26.959Z,1.50
2019-01-25T18:26:54.629Z,1.60
2019-01-25T18:29:21.230Z,1.50
2019-01-25T18:31:47.797Z,1.50
2019-01-25T18:34:14.286Z,1.60
2019-01-25T18:36:40.869Z,1.60
2019-01-25T18:39:07.477Z,1.60
2019-01-25T18:41:35.396Z,1.60
2019-01-25T18:44:02.068Z,1.60
2019-01-25T18:46:28.626Z,1.60
2019-01-25T18:48:55.066Z,1.60
2019-01-25T18:51:21.676Z,1.60
2019-01-25T18:53:48.118Z,1.60
2019-01-25T18:56:14.689Z,1.60
2019-01-25T18:58:41.137Z,1.60
2019-01-25T19:01:07.713Z,1.70
2019-01-25T19:03:34.122Z,1.70
2019-01-25T19:06:00.614Z,1.60
2019-01-25T19:08:27.146Z,1.60
2019-01-25T19:10:55.037Z,1.70
2019-01-25T19:13:21.573Z,1.70
2019-01-25T19:15:47.961Z,1.70
2019-01-25T19:18:14.600Z,1.60
2019-01-25T19:20:41.107Z,1.60
2019-01-25T19:23:07.749Z,1.60
2019-01-25T19:25:34.243Z,1.70
2019-01-25T19:28:01.087Z,1.70
2019-01-25T19:30:34.127Z,1.70
2019-01-25T19:33:00.776Z,1.70
2019-01-25T19:35:27.309Z,1.70
2019-01-25T19:37:53.931Z,1.80
2019-01-25T19:40:24.096Z,1.80
2019-01-25T19:42:51.800Z,1.70
2019-01-25T19:45:18.633Z,1.80
2019-01-25T19:47:45.332Z,1.70
2019-01-25T19:50:14.835Z,1.80
2019-01-25T19:52:41.640Z,1.80
2019-01-25T19:55:11.210Z,1.80
2019-01-25T19:57:37.729Z,1.80
2019-01-25T20:00:08.235Z,1.80
2019-01-25T20:02:34.783Z,1.80
2019-01-25T20:05:01.151Z,1.80
2019-01-25T20:07:27.763Z,1.80
2019-01-25T20:09:54.190Z,1.90
2019-01-25T20:12:20.768Z,1.90
2019-01-25T20:14:47.395Z,1.90
2019-01-25T20:17:13.920Z,1.90
2019-01-25T20:19:40.386Z,1.90
2019-01-25T20:22:08.028Z,1.90
2019-01-25T20:24:34.453Z,1.90
2019-01-25T20:27:00.833Z,1.90
2019-01-25T20:29:28.971Z,1.90
2019-01-25T20:31:57.638Z,2.00
2019-01-25T20:34:25.408Z,2.00
2019-01-25T20:36:54.002Z,2.00
2019-01-25T20:39:20.448Z,1.90
2019-01-25T20:41:46.815Z,2.00
2019-01-25T20:44:13.704Z,2.00
2019-01-25T20:46:40.130Z,2.00
2019-01-25T20:49:06.740Z,2.00
2019-01-25T20:51:33.611Z,2.00
2019-01-25T20:54:00.146Z,2.10
2019-01-25T20:56:26.765Z,2.10
2019-01-25T20:58:53.694Z,2.10
2019-01-25T21:01:20.273Z,2.10
2019-01-25T21:03:46.839Z,2.10
2019-01-25T21:06:13.199Z,2.10
2019-01-25T21:08:39.883Z,2.10
2019-01-25T21:11:06.466Z,2.10
2019-01-25T21:13:33.255Z,2.10
2019-01-25T21:15:59.636Z,2.10
2019-01-25T21:18:26.143Z,2.20
2019-01-25T21:20:52.502Z,2.20
2019-01-25T21:23:19.058Z,2.20
2019-01-25T21:25:45.517Z,2.20
2019-01-25T21:28:12.213Z,2.30
2019-01-25T21:30:38.802Z,2.30
2019-01-25T21:33:05.537Z,2.30
2019-01-25T21:35:32.183Z,2.30
2019-01-25T21:37:59.937Z,2.40
2019-01-25T21:40:28.520Z,2.40
2019-01-25T21:42:58.583Z,2.40
2019-01-25T21:45:28.070Z,2.40
2019-01-25T21:47:54.720Z,2.50
2019-01-25T21:50:24.180Z,2.50
2019-01-25T21:52:50.715Z,2.40
2019-01-25T21:55:17.198Z,2.60
2019-01-25T21:57:43.927Z,2.60
2019-01-25T22:00:22.808Z,2.70
2019-01-25T22:02:49.543Z,2.70
2019-01-25T22:05:16.586Z,2.70
2019-01-25T22:07:43.154Z,1.40
2019-01-25T22:10:18.514Z,2.70
2019-01-25T22:12:45.078Z,2.80
2019-01-25T22:15:15.000Z,2.80
2019-01-25T22:17:41.597Z,2.90
2019-01-25T22:20:11.612Z,2.90
2019-01-25T22:22:38.046Z,3.00
2019-01-25T22:25:07.049Z,3.00
2019-01-25T22:27:33.622Z,3.00
2019-01-25T22:30:00.178Z,3.00
2019-01-25T22:32:26.810Z,3.10
2019-01-25T22:34:53.285Z,3.00
2019-01-25T22:37:19.721Z,3.10
2019-01-25T22:39:46.365Z,3.10
2019-01-25T22:42:12.960Z,3.10
2019-01-25T22:44:39.523Z,3.20
2019-01-25T22:47:08.185Z,3.20
2019-01-25T22:49:34.808Z,3.30
2019-01-25T22:52:01.375Z,3.30
2019-01-25T22:54:28.192Z,3.30
2019-01-25T22:56:54.847Z,3.30
2019-01-25T22:59:21.778Z,4.30
2019-01-25T23:01:48.559Z,3.50
2019-01-25T23:04:41.827Z,3.30
2019-01-25T23:07:08.322Z,3.40
2019-01-25T23:09:34.856Z,3.40
2019-01-25T23:12:01.355Z,3.50
2019-01-25T23:14:27.918Z,3.40
2019-01-25T23:19:31.309Z,3.40
2019-01-25T23:21:58.023Z,2.20
2019-01-25T23:24:24.669Z,3.40
2019-01-25T23:26:52.853Z,3.50
2019-01-25T23:29:19.355Z,3.50
2019-01-25T23:31:45.980Z,4.30
2019-01-25T23:34:12.485Z,3.60
2019-01-25T23:36:40.223Z,3.70
2019-01-25T23:39:07.188Z,3.70
2019-01-25T23:41:33.774Z,3.80
2019-01-25T23:44:00.210Z,3.70
2019-01-25T23:46:26.596Z,3.90
2019-01-25T23:48:53.076Z,3.70
2019-01-25T23:51:22.982Z,3.80
2019-01-25T23:53:47.956Z,3.80
2019-01-25T23:56:14.437Z,3.80
2019-01-25T23:58:40.918Z,3.80
